createdAt,value
2023-03-05T00:00:28.552Z,1023.14
2023-03-05T00:00:59.483Z,1023.14
2023-03-05T00:01:30.412Z,1023.15
2023-03-05T00:02:01.340Z,1023.16
2023-03-05T00:02:32.311Z,1023.17
2023-03-05T00:03:03.209Z,1023.17
2023-03-05T00:03:34.307Z,1023.17
2023-03-05T00:04:04.739Z,1023.18
2023-03-05T00:04:35.648Z,1023.18
2023-03-05T00:05:06.585Z,1023.17
2023-03-05T00:05:37.588Z,1023.17
2023-03-05T00:06:08.022Z,1023.16
2023-03-05T00:06:38.945Z,1023.15
2023-03-05T00:07:09.878Z,1023.17
2023-03-05T00:07:40.809Z,1023.16
2023-03-05T00:08:11.734Z,1023.16
2023-03-05T00:08:42.637Z,1023.13
2023-03-05T00:09:13.568Z,1023.11
2023-03-05T00:09:44.490Z,1023.09
2023-03-05T00:10:15.422Z,1023.09
2023-03-05T00:10:46.352Z,1023.09
2023-03-05T00:11:17.279Z,1023.09
2023-03-05T00:11:48.201Z,1023.10
2023-03-05T00:12:19.121Z,1023.11
2023-03-05T00:12:50.073Z,1023.12
2023-03-05T00:13:20.968Z,1023.12
2023-03-05T00:13:51.885Z,1023.12
2023-03-05T00:14:22.809Z,1023.13
2023-03-05T00:14:53.720Z,1023.13
2023-03-05T00:15:24.641Z,1023.14
2023-03-05T00:15:55.621Z,1023.15
2023-03-05T00:16:26.635Z,1023.17
2023-03-05T00:16:57.100Z,1023.18
2023-03-05T00:17:28.019Z,1023.20
2023-03-05T00:17:58.927Z,1023.21
2023-03-05T00:18:29.862Z,1023.21
2023-03-05T00:19:00.773Z,1023.21
2023-03-05T00:19:31.708Z,1023.20
2023-03-05T00:20:02.726Z,1023.19
2023-03-05T00:20:33.608Z,1023.17
2023-03-05T00:21:04.535Z,1023.16
2023-03-05T00:21:35.484Z,1023.16
2023-03-05T00:22:06.410Z,1023.16
2023-03-05T00:22:37.342Z,1023.16
2023-03-05T00:23:08.266Z,1023.15
2023-03-05T00:23:39.200Z,1023.14
2023-03-05T00:24:10.130Z,1023.14
2023-03-05T00:24:41.048Z,1023.14
2023-03-05T00:25:11.978Z,1023.15
2023-03-05T00:25:42.925Z,1023.15
2023-03-05T00:26:13.826Z,1023.15
2023-03-05T00:26:44.742Z,1023.15
2023-03-05T00:27:15.663Z,1023.16
2023-03-05T00:27:46.586Z,1023.17
2023-03-05T00:28:17.517Z,1023.17
2023-03-05T00:28:48.429Z,1023.16
2023-03-05T00:29:19.389Z,1023.17
2023-03-05T00:29:50.288Z,1023.18
2023-03-05T00:30:21.218Z,1023.17
2023-03-05T00:30:52.158Z,1023.17
2023-03-05T00:31:23.143Z,1023.16
2023-03-05T00:31:53.576Z,1023.15
2023-03-05T00:32:24.608Z,1023.14
2023-03-05T00:32:55.053Z,1023.13
2023-03-05T00:33:25.991Z,1023.12
2023-03-05T00:33:56.923Z,1023.11
2023-03-05T00:34:27.846Z,1023.09
2023-03-05T00:34:58.765Z,1023.08
2023-03-05T00:35:29.736Z,1023.06
2023-03-05T00:36:00.684Z,1023.05
2023-03-05T00:36:31.584Z,1023.05
2023-03-05T00:37:02.507Z,1023.05
2023-03-05T00:37:33.453Z,1023.05
2023-03-05T00:38:04.365Z,1023.04
2023-03-05T00:38:35.285Z,1023.03
2023-03-05T00:39:06.212Z,1023.01
2023-03-05T00:39:37.125Z,1022.99
2023-03-05T00:40:39.051Z,1022.97
2023-03-05T00:41:09.515Z,1022.96
2023-03-05T00:41:40.463Z,1022.95
2023-03-05T00:42:11.414Z,1022.95
2023-03-05T00:42:42.322Z,1022.95
2023-03-05T00:43:13.269Z,1022.96
2023-03-05T00:43:44.222Z,1022.96
2023-03-05T00:44:15.122Z,1022.97
2023-03-05T00:44:46.051Z,1022.98
2023-03-05T00:45:16.957Z,1022.98
2023-03-05T00:45:47.896Z,1022.98
2023-03-05T00:46:18.896Z,1022.97
2023-03-05T00:46:49.378Z,1022.97
2023-03-05T00:47:19.833Z,1022.96
2023-03-05T00:47:50.760Z,1022.96
2023-03-05T00:48:21.693Z,1022.95
2023-03-05T00:48:52.604Z,1022.95
2023-03-05T00:49:23.516Z,1022.93
2023-03-05T00:49:54.430Z,1022.92
2023-03-05T00:50:25.359Z,1022.92
2023-03-05T00:50:56.250Z,1022.92
2023-03-05T00:51:27.174Z,1022.93
2023-03-05T00:51:58.074Z,1022.93
2023-03-05T00:52:29.020Z,1022.93
2023-03-05T00:52:59.938Z,1022.93
2023-03-05T00:53:30.848Z,1022.92
2023-03-05T00:54:01.760Z,1022.91
2023-03-05T00:54:32.690Z,1022.89
2023-03-05T00:55:03.608Z,1022.88
2023-03-05T00:55:34.530Z,1022.87
2023-03-05T00:56:05.467Z,1022.87
2023-03-05T00:56:36.378Z,1022.87
2023-03-05T00:57:07.315Z,1022.86
2023-03-05T00:58:09.158Z,1022.85
2023-03-05T00:58:40.089Z,1022.84
2023-03-05T00:59:11.061Z,1022.83
2023-03-05T00:59:41.960Z,1022.82
2023-03-05T01:00:12.912Z,1022.82
2023-03-05T01:00:43.848Z,1022.81
2023-03-05T01:01:14.746Z,1022.81
2023-03-05T01:01:45.729Z,1022.81
2023-03-05T01:02:16.666Z,1022.80
2023-03-05T01:02:47.589Z,1022.81
2023-03-05T01:03:18.506Z,1022.81
2023-03-05T01:03:49.389Z,1022.81
2023-03-05T01:04:20.308Z,1022.80
2023-03-05T01:04:51.290Z,1022.80
2023-03-05T01:05:21.873Z,1022.79
2023-03-05T01:05:52.802Z,1022.78
2023-03-05T01:06:23.714Z,1022.77
2023-03-05T01:06:54.629Z,1022.75
2023-03-05T01:07:25.560Z,1022.74
2023-03-05T01:07:56.508Z,1022.74
2023-03-05T01:08:58.337Z,1022.73
2023-03-05T01:09:29.246Z,1022.74
2023-03-05T01:10:00.193Z,1022.74
2023-03-05T01:10:31.120Z,1022.75
2023-03-05T01:11:02.039Z,1022.75
2023-03-05T01:11:32.951Z,1022.76
2023-03-05T01:12:03.841Z,1022.76
2023-03-05T01:12:34.750Z,1022.76
2023-03-05T01:13:05.712Z,1022.76
2023-03-05T01:13:36.637Z,1022.76
2023-03-05T01:14:07.563Z,1022.76
2023-03-05T01:14:38.524Z,1022.76
2023-03-05T01:15:09.417Z,1022.76
2023-03-05T01:15:40.346Z,1022.76
2023-03-05T01:16:11.329Z,1022.75
2023-03-05T01:16:42.258Z,1022.74
2023-03-05T01:17:13.169Z,1022.73
2023-03-05T01:17:44.099Z,1022.71
2023-03-05T01:18:15.004Z,1022.71
2023-03-05T01:18:45.934Z,1022.70
2023-03-05T01:19:16.876Z,1022.71
2023-03-05T01:19:47.780Z,1022.71
2023-03-05T01:20:18.710Z,1022.71
2023-03-05T01:20:49.663Z,1022.70
2023-03-05T01:21:20.587Z,1022.70
2023-03-05T01:21:51.559Z,1022.70
2023-03-05T01:22:22.459Z,1022.69
2023-03-05T01:22:53.363Z,1022.69
2023-03-05T01:23:24.293Z,1022.68
2023-03-05T01:23:55.218Z,1022.68
2023-03-05T01:24:26.128Z,1022.67
2023-03-05T01:24:57.040Z,1022.66
2023-03-05T01:25:27.959Z,1022.65
2023-03-05T01:25:58.872Z,1022.64
2023-03-05T01:26:29.869Z,1022.63
2023-03-05T01:27:00.762Z,1022.62
2023-03-05T01:27:31.647Z,1022.61
2023-03-05T01:28:02.587Z,1022.60
2023-03-05T01:28:33.538Z,1022.59
2023-03-05T01:29:04.444Z,1022.58
2023-03-05T01:29:35.349Z,1022.57
2023-03-05T01:30:06.300Z,1022.56
2023-03-05T01:30:37.205Z,1022.56
2023-03-05T01:31:08.194Z,1022.55
2023-03-05T01:31:38.711Z,1022.55
2023-03-05T01:32:09.292Z,1022.54
2023-03-05T01:32:39.745Z,1022.54
2023-03-05T01:33:10.675Z,1022.53
2023-03-05T01:34:11.397Z,1022.50
2023-03-05T01:34:43.297Z,1022.49
2023-03-05T01:35:14.221Z,1022.48
2023-03-05T01:35:45.217Z,1022.48
2023-03-05T01:36:16.141Z,1022.46
2023-03-05T01:36:47.029Z,1022.46
2023-03-05T01:37:17.947Z,1022.46
2023-03-05T01:37:48.870Z,1022.45
2023-03-05T01:38:19.807Z,1022.45
2023-03-05T01:38:50.729Z,1022.44
2023-03-05T01:39:21.676Z,1022.43
2023-03-05T01:39:52.584Z,1022.43
2023-03-05T01:40:23.542Z,1022.42
2023-03-05T01:40:54.440Z,1022.42
2023-03-05T01:41:25.367Z,1022.41
2023-03-05T01:41:56.308Z,1022.40
2023-03-05T01:42:27.278Z,1022.38
2023-03-05T01:42:58.243Z,1022.38
2023-03-05T01:43:29.168Z,1022.38
2023-03-05T01:44:00.105Z,1022.38
2023-03-05T01:44:31.047Z,1022.38
2023-03-05T01:45:01.973Z,1022.36
2023-03-05T01:45:33.010Z,1022.36
2023-03-05T01:46:03.490Z,1022.35
2023-03-05T01:46:34.414Z,1022.35
2023-03-05T01:47:05.367Z,1022.35
2023-03-05T01:47:36.319Z,1022.35
2023-03-05T01:48:07.241Z,1022.34
2023-03-05T01:48:38.246Z,1022.33
2023-03-05T01:49:09.177Z,1022.32
2023-03-05T01:49:40.088Z,1022.32
2023-03-05T01:50:10.993Z,1022.29
2023-03-05T01:50:41.937Z,1022.29
2023-03-05T01:51:12.862Z,1022.28
2023-03-05T01:51:43.778Z,1022.27
2023-03-05T01:52:14.695Z,1022.26
2023-03-05T01:52:45.589Z,1022.26
2023-03-05T01:53:16.514Z,1022.25
2023-03-05T01:53:47.451Z,1022.24
2023-03-05T01:54:18.390Z,1022.24
2023-03-05T01:54:49.308Z,1022.23
2023-03-05T01:55:20.227Z,1022.21
2023-03-05T01:55:51.419Z,1022.21
2023-03-05T01:56:22.100Z,1022.21
2023-03-05T01:56:53.043Z,1022.20
2023-03-05T01:57:23.974Z,1022.20
2023-03-05T01:57:54.880Z,1022.19
2023-03-05T01:58:25.800Z,1022.18
2023-03-05T01:58:56.732Z,1022.17
2023-03-05T01:59:27.660Z,1022.18
2023-03-05T01:59:58.589Z,1022.16
2023-03-05T02:00:29.524Z,1022.15
2023-03-05T02:01:00.562Z,1022.16
2023-03-05T02:01:31.045Z,1022.15
2023-03-05T02:02:01.452Z,1022.15
2023-03-05T02:02:32.398Z,1022.15
2023-03-05T02:03:03.331Z,1022.15
2023-03-05T02:03:34.550Z,1022.16
2023-03-05T02:04:04.989Z,1022.14
2023-03-05T02:04:35.878Z,1022.13
2023-03-05T02:05:37.680Z,1022.13
2023-03-05T02:06:08.607Z,1022.12
2023-03-05T02:06:39.508Z,1022.11
2023-03-05T02:07:10.439Z,1022.10
2023-03-05T02:07:41.490Z,1022.09
2023-03-05T02:08:11.883Z,1022.08
2023-03-05T02:08:42.850Z,1022.08
2023-03-05T02:09:13.747Z,1022.08
2023-03-05T02:09:44.669Z,1022.07
2023-03-05T02:10:15.590Z,1022.07
2023-03-05T02:10:46.497Z,1022.06
2023-03-05T02:11:17.415Z,1022.06
2023-03-05T02:12:19.262Z,1022.05
2023-03-05T02:12:50.189Z,1022.05
2023-03-05T02:13:21.098Z,1022.05
2023-03-05T02:13:52.016Z,1022.04
2023-03-05T02:14:22.952Z,1022.02
2023-03-05T02:14:53.865Z,1022.01
2023-03-05T02:15:24.852Z,1021.99
2023-03-05T02:15:55.729Z,1021.98
2023-03-05T02:16:26.742Z,1021.98
2023-03-05T02:16:57.184Z,1021.97
2023-03-05T02:17:28.117Z,1021.96
2023-03-05T02:17:59.038Z,1021.95
2023-03-05T02:18:29.988Z,1021.95
2023-03-05T02:19:00.922Z,1021.94
2023-03-05T02:19:31.843Z,1021.93
2023-03-05T02:20:02.783Z,1021.93
2023-03-05T02:20:33.721Z,1021.92
2023-03-05T02:21:04.650Z,1021.90
2023-03-05T02:21:35.551Z,1021.90
2023-03-05T02:22:06.072Z,1021.88
2023-03-05T02:22:36.992Z,1021.87
2023-03-05T02:23:07.922Z,1021.86
2023-03-05T02:23:38.822Z,1021.86
2023-03-05T02:24:09.749Z,1021.84
2023-03-05T02:24:40.669Z,1021.85
2023-03-05T02:25:11.577Z,1021.84
2023-03-05T02:25:42.524Z,1021.84
2023-03-05T02:26:13.434Z,1021.83
2023-03-05T02:26:44.383Z,1021.83
2023-03-05T02:27:15.300Z,1021.82
2023-03-05T02:27:46.228Z,1021.83
2023-03-05T02:28:17.142Z,1021.83
2023-03-05T02:28:48.069Z,1021.83
2023-03-05T02:29:18.995Z,1021.83
2023-03-05T02:29:49.951Z,1021.84
2023-03-05T02:30:20.878Z,1021.84
2023-03-05T02:30:51.815Z,1021.84
2023-03-05T02:31:22.440Z,1021.83
2023-03-05T02:31:53.413Z,1021.83
2023-03-05T02:32:23.877Z,1021.82
2023-03-05T02:32:54.794Z,1021.81
2023-03-05T02:33:25.727Z,1021.81
2023-03-05T02:33:56.655Z,1021.80
2023-03-05T02:34:27.552Z,1021.79
2023-03-05T02:34:58.466Z,1021.78
2023-03-05T02:35:29.400Z,1021.77
2023-03-05T02:36:00.030Z,1021.77
2023-03-05T02:36:30.447Z,1021.77
2023-03-05T02:37:01.355Z,1021.77
2023-03-05T02:37:32.276Z,1021.77
2023-03-05T02:38:03.178Z,1021.77
2023-03-05T02:38:34.101Z,1021.77
2023-03-05T02:39:05.028Z,1021.76
2023-03-05T02:39:35.943Z,1021.76
2023-03-05T02:40:37.777Z,1021.74
2023-03-05T02:41:08.706Z,1021.74
2023-03-05T02:41:39.629Z,1021.73
2023-03-05T02:42:10.557Z,1021.73
2023-03-05T02:42:41.499Z,1021.72
2023-03-05T02:43:12.433Z,1021.72
2023-03-05T02:43:43.358Z,1021.72
2023-03-05T02:44:14.294Z,1021.71
2023-03-05T02:44:45.238Z,1021.72
2023-03-05T02:45:16.157Z,1021.70
2023-03-05T02:45:47.072Z,1021.71
2023-03-05T02:46:17.996Z,1021.71
2023-03-05T02:46:48.894Z,1021.70
2023-03-05T02:47:19.843Z,1021.69
2023-03-05T02:47:50.766Z,1021.69
2023-03-05T02:48:21.677Z,1021.69
2023-03-05T02:48:52.609Z,1021.67
2023-03-05T02:49:23.509Z,1021.67
2023-03-05T02:49:54.429Z,1021.67
2023-03-05T02:50:25.352Z,1021.66
2023-03-05T02:50:56.261Z,1021.65
2023-03-05T02:51:27.157Z,1021.64
2023-03-05T02:51:58.083Z,1021.64
2023-03-05T02:52:29.015Z,1021.63
2023-03-05T02:52:59.934Z,1021.63
2023-03-05T02:53:30.857Z,1021.62
2023-03-05T02:54:01.804Z,1021.61
2023-03-05T02:54:32.725Z,1021.61
2023-03-05T02:55:03.694Z,1021.60
2023-03-05T02:55:34.610Z,1021.59
2023-03-05T02:56:05.500Z,1021.58
2023-03-05T02:56:36.413Z,1021.56
2023-03-05T02:57:07.361Z,1021.56
2023-03-05T02:57:38.293Z,1021.55
2023-03-05T02:58:09.203Z,1021.55
2023-03-05T02:58:40.113Z,1021.54
2023-03-05T02:59:11.009Z,1021.54
2023-03-05T02:59:42.017Z,1021.54
2023-03-05T03:00:12.503Z,1021.53
2023-03-05T03:00:43.411Z,1021.53
2023-03-05T03:01:14.414Z,1021.53
2023-03-05T03:01:44.835Z,1021.53
2023-03-05T03:02:15.727Z,1021.52
2023-03-05T03:02:46.731Z,1021.52
2023-03-05T03:03:17.697Z,1021.52
2023-03-05T03:03:48.151Z,1021.51
2023-03-05T03:04:19.074Z,1021.51
2023-03-05T03:04:49.984Z,1021.51
2023-03-05T03:05:20.913Z,1021.49
2023-03-05T03:05:51.878Z,1021.49
2023-03-05T03:06:22.761Z,1021.49
2023-03-05T03:06:53.693Z,1021.47
2023-03-05T03:07:24.586Z,1021.47
2023-03-05T03:07:55.491Z,1021.46
2023-03-05T03:08:26.395Z,1021.46
2023-03-05T03:08:57.287Z,1021.46
2023-03-05T03:09:28.223Z,1021.45
2023-03-05T03:09:59.172Z,1021.44
2023-03-05T03:10:30.093Z,1021.42
2023-03-05T03:11:01.024Z,1021.42
2023-03-05T03:11:31.924Z,1021.41
2023-03-05T03:12:02.839Z,1021.41
2023-03-05T03:12:33.739Z,1021.40
2023-03-05T03:13:04.643Z,1021.39
2023-03-05T03:13:35.571Z,1021.39
2023-03-05T03:14:06.499Z,1021.38
2023-03-05T03:14:37.417Z,1021.37
2023-03-05T03:15:08.339Z,1021.37
2023-03-05T03:15:39.243Z,1021.36
2023-03-05T03:16:10.166Z,1021.36
2023-03-05T03:16:41.178Z,1021.35
2023-03-05T03:17:12.099Z,1021.34
2023-03-05T03:17:43.032Z,1021.34
2023-03-05T03:18:13.997Z,1021.34
2023-03-05T03:18:44.877Z,1021.34
2023-03-05T03:19:16.029Z,1021.33
2023-03-05T03:19:46.438Z,1021.32
2023-03-05T03:20:17.328Z,1021.33
2023-03-05T03:20:48.254Z,1021.33
2023-03-05T03:21:19.215Z,1021.34
2023-03-05T03:21:50.122Z,1021.34
2023-03-05T03:22:21.002Z,1021.33
2023-03-05T03:22:51.930Z,1021.34
2023-03-05T03:23:22.836Z,1021.33
2023-03-05T03:23:53.751Z,1021.33
2023-03-05T03:24:24.676Z,1021.33
2023-03-05T03:24:55.608Z,1021.33
2023-03-05T03:25:26.544Z,1021.33
2023-03-05T03:25:57.450Z,1021.32
2023-03-05T03:26:28.364Z,1021.31
2023-03-05T03:26:59.285Z,1021.31
2023-03-05T03:27:30.203Z,1021.31
2023-03-05T03:28:01.150Z,1021.30
2023-03-05T03:28:32.089Z,1021.30
2023-03-05T03:29:02.976Z,1021.29
2023-03-05T03:29:33.887Z,1021.29
2023-03-05T03:30:04.868Z,1021.29
2023-03-05T03:30:35.824Z,1021.27
2023-03-05T03:31:06.814Z,1021.28
2023-03-05T03:31:37.253Z,1021.27
2023-03-05T03:32:08.234Z,1021.27
2023-03-05T03:32:39.168Z,1021.27
2023-03-05T03:33:10.105Z,1021.27
2023-03-05T03:33:41.063Z,1021.26
2023-03-05T03:34:11.964Z,1021.25
2023-03-05T03:34:42.889Z,1021.26
2023-03-05T03:35:13.805Z,1021.25
2023-03-05T03:35:44.808Z,1021.23
2023-03-05T03:36:15.244Z,1021.22
2023-03-05T03:36:46.217Z,1021.21
2023-03-05T03:37:17.153Z,1021.20
2023-03-05T03:37:48.081Z,1021.19
2023-03-05T03:38:18.987Z,1021.19
2023-03-05T03:38:49.914Z,1021.19
2023-03-05T03:39:20.850Z,1021.19
2023-03-05T03:39:51.767Z,1021.19
2023-03-05T03:40:22.717Z,1021.19
2023-03-05T03:40:53.617Z,1021.19
2023-03-05T03:41:24.557Z,1021.19
2023-03-05T03:41:55.467Z,1021.18
2023-03-05T03:42:26.409Z,1021.19
2023-03-05T03:42:57.319Z,1021.20
2023-03-05T03:43:28.323Z,1021.19
2023-03-05T03:43:58.759Z,1021.19
2023-03-05T03:44:29.695Z,1021.18
2023-03-05T03:45:00.680Z,1021.18
2023-03-05T03:45:31.615Z,1021.18
2023-03-05T03:46:02.570Z,1021.19
2023-03-05T03:46:33.544Z,1021.19
2023-03-05T03:47:04.455Z,1021.19
2023-03-05T03:47:35.361Z,1021.18
2023-03-05T03:48:06.271Z,1021.18
2023-03-05T03:48:37.228Z,1021.19
2023-03-05T03:49:08.161Z,1021.19
2023-03-05T03:49:39.075Z,1021.18
2023-03-05T03:50:09.959Z,1021.17
2023-03-05T03:50:40.895Z,1021.17
2023-03-05T03:51:11.804Z,1021.16
2023-03-05T03:51:42.700Z,1021.16
2023-03-05T03:52:13.626Z,1021.16
2023-03-05T03:52:44.527Z,1021.15
2023-03-05T03:53:15.460Z,1021.15
2023-03-05T03:53:46.430Z,1021.15
2023-03-05T03:54:17.346Z,1021.15
2023-03-05T03:54:48.329Z,1021.15
2023-03-05T03:55:19.228Z,1021.15
2023-03-05T03:55:50.113Z,1021.15
2023-03-05T03:56:21.041Z,1021.14
2023-03-05T03:56:51.937Z,1021.14
2023-03-05T03:57:22.874Z,1021.13
2023-03-05T03:57:53.786Z,1021.13
2023-03-05T03:58:24.711Z,1021.13
2023-03-05T03:58:55.637Z,1021.12
2023-03-05T03:59:26.542Z,1021.12
2023-03-05T03:59:57.488Z,1021.12
2023-03-05T04:00:59.334Z,1021.12
2023-03-05T04:01:30.283Z,1021.12
2023-03-05T04:02:01.200Z,1021.11
2023-03-05T04:02:32.182Z,1021.10
2023-03-05T04:03:03.079Z,1021.10
2023-03-05T04:03:34.006Z,1021.10
2023-03-05T04:04:04.998Z,1021.09
2023-03-05T04:04:35.977Z,1021.08
2023-03-05T04:05:06.905Z,1021.08
2023-03-05T04:05:37.805Z,1021.07
2023-03-05T04:06:08.702Z,1021.07
2023-03-05T04:06:39.673Z,1021.06
2023-03-05T04:07:10.593Z,1021.06
2023-03-05T04:07:41.508Z,1021.06
2023-03-05T04:08:12.438Z,1021.05
2023-03-05T04:08:43.348Z,1021.04
2023-03-05T04:09:14.265Z,1021.04
2023-03-05T04:09:45.210Z,1021.03
2023-03-05T04:10:16.135Z,1021.02
2023-03-05T04:10:47.064Z,1021.01
2023-03-05T04:11:48.917Z,1020.98
2023-03-05T04:12:19.807Z,1020.98
2023-03-05T04:12:50.728Z,1020.96
2023-03-05T04:13:21.683Z,1020.96
2023-03-05T04:13:52.604Z,1020.96
2023-03-05T04:14:23.523Z,1020.95
2023-03-05T04:14:54.442Z,1020.95
2023-03-05T04:15:25.371Z,1020.94
2023-03-05T04:15:56.312Z,1020.93
2023-03-05T04:16:27.229Z,1020.93
2023-03-05T04:16:58.149Z,1020.92
2023-03-05T04:17:29.116Z,1020.92
2023-03-05T04:18:00.053Z,1020.92
2023-03-05T04:18:32.539Z,1020.92
2023-03-05T04:19:01.518Z,1020.93
2023-03-05T04:19:32.417Z,1020.91
2023-03-05T04:20:03.375Z,1020.90
2023-03-05T04:20:34.268Z,1020.90
2023-03-05T04:21:05.197Z,1020.89
2023-03-05T04:21:36.123Z,1020.87
2023-03-05T04:22:07.047Z,1020.88
2023-03-05T04:22:37.994Z,1020.87
2023-03-05T04:23:08.939Z,1020.87
2023-03-05T04:23:39.871Z,1020.86
2023-03-05T04:24:10.781Z,1020.86
2023-03-05T04:24:41.703Z,1020.85
2023-03-05T04:25:12.653Z,1020.85
2023-03-05T04:25:43.569Z,1020.84
2023-03-05T04:26:14.503Z,1020.84
2023-03-05T04:26:45.443Z,1020.81
2023-03-05T04:27:16.350Z,1020.82
2023-03-05T04:27:47.242Z,1020.82
2023-03-05T04:28:18.179Z,1020.81
2023-03-05T04:28:49.080Z,1020.82
2023-03-05T04:29:20.028Z,1020.81
2023-03-05T04:29:50.966Z,1020.80
2023-03-05T04:30:21.935Z,1020.81
2023-03-05T04:30:52.869Z,1020.81
2023-03-05T04:31:23.931Z,1020.81
2023-03-05T04:31:54.346Z,1020.81
2023-03-05T04:32:25.296Z,1020.80
2023-03-05T04:32:56.214Z,1020.80
2023-03-05T04:33:27.115Z,1020.79
2023-03-05T04:33:58.036Z,1020.79
2023-03-05T04:34:29.001Z,1020.77
2023-03-05T04:34:59.900Z,1020.77
2023-03-05T04:35:30.873Z,1020.76
2023-03-05T04:36:01.769Z,1020.75
2023-03-05T04:36:32.690Z,1020.76
2023-03-05T04:37:03.596Z,1020.74
2023-03-05T04:37:35.037Z,1020.75
2023-03-05T04:38:05.475Z,1020.73
2023-03-05T04:38:36.382Z,1020.73
2023-03-05T04:39:07.301Z,1020.72
2023-03-05T04:39:38.231Z,1020.71
2023-03-05T04:40:09.135Z,1020.72
2023-03-05T04:40:40.065Z,1020.72
2023-03-05T04:41:10.994Z,1020.71
2023-03-05T04:41:41.901Z,1020.71
2023-03-05T04:42:12.840Z,1020.71
2023-03-05T04:42:43.773Z,1020.71
2023-03-05T04:43:14.736Z,1020.72
2023-03-05T04:43:45.665Z,1020.71
2023-03-05T04:44:16.582Z,1020.71
2023-03-05T04:44:47.500Z,1020.71
2023-03-05T04:45:18.408Z,1020.70
2023-03-05T04:45:49.319Z,1020.70
2023-03-05T04:46:20.261Z,1020.70
2023-03-05T04:46:51.202Z,1020.70
2023-03-05T04:47:22.115Z,1020.71
2023-03-05T04:47:53.030Z,1020.71
2023-03-05T04:48:23.945Z,1020.71
2023-03-05T04:48:54.866Z,1020.70
2023-03-05T04:49:25.764Z,1020.70
2023-03-05T04:49:56.663Z,1020.69
2023-03-05T04:50:27.593Z,1020.70
2023-03-05T04:50:58.567Z,1020.70
2023-03-05T04:51:29.461Z,1020.70
2023-03-05T04:52:00.384Z,1020.71
2023-03-05T04:52:31.296Z,1020.71
2023-03-05T04:53:02.230Z,1020.70
2023-03-05T04:53:33.159Z,1020.69
2023-03-05T04:54:04.099Z,1020.69
2023-03-05T04:54:34.996Z,1020.69
2023-03-05T04:55:05.942Z,1020.69
2023-03-05T04:55:36.863Z,1020.68
2023-03-05T04:56:07.800Z,1020.68
2023-03-05T04:57:09.634Z,1020.69
2023-03-05T04:57:40.565Z,1020.68
2023-03-05T04:58:11.491Z,1020.67
2023-03-05T04:58:42.423Z,1020.68
2023-03-05T04:59:13.334Z,1020.67
2023-03-05T04:59:44.259Z,1020.67
2023-03-05T05:00:15.200Z,1020.66
2023-03-05T05:00:46.112Z,1020.65
2023-03-05T05:01:17.076Z,1020.65
2023-03-05T05:01:48.021Z,1020.64
2023-03-05T05:02:18.508Z,1020.63
2023-03-05T05:02:49.500Z,1020.63
2023-03-05T05:03:19.985Z,1020.63
2023-03-05T05:03:50.945Z,1020.63
2023-03-05T05:04:21.859Z,1020.63
2023-03-05T05:04:52.825Z,1020.63
2023-03-05T05:05:23.764Z,1020.62
2023-03-05T05:05:54.668Z,1020.61
2023-03-05T05:06:25.625Z,1020.61
2023-03-05T05:06:56.519Z,1020.61
2023-03-05T05:07:58.406Z,1020.60
2023-03-05T05:08:29.325Z,1020.59
2023-03-05T05:09:00.232Z,1020.58
2023-03-05T05:09:31.144Z,1020.59
2023-03-05T05:10:02.075Z,1020.58
2023-03-05T05:10:32.985Z,1020.56
2023-03-05T05:11:03.914Z,1020.56
2023-03-05T05:11:34.840Z,1020.56
2023-03-05T05:12:05.761Z,1020.56
2023-03-05T05:12:36.680Z,1020.56
2023-03-05T05:13:07.593Z,1020.56
2023-03-05T05:13:38.544Z,1020.56
2023-03-05T05:14:09.465Z,1020.55
2023-03-05T05:14:40.407Z,1020.56
2023-03-05T05:15:11.329Z,1020.56
2023-03-05T05:15:42.268Z,1020.56
2023-03-05T05:16:13.301Z,1020.55
2023-03-05T05:16:43.725Z,1020.55
2023-03-05T05:17:14.616Z,1020.56
2023-03-05T05:17:45.549Z,1020.55
2023-03-05T05:18:16.451Z,1020.55
2023-03-05T05:18:47.389Z,1020.54
2023-03-05T05:19:18.384Z,1020.55
2023-03-05T05:19:49.307Z,1020.53
2023-03-05T05:20:20.285Z,1020.54
2023-03-05T05:20:51.180Z,1020.53
2023-03-05T05:21:22.125Z,1020.53
2023-03-05T05:21:53.044Z,1020.52
2023-03-05T05:22:23.925Z,1020.52
2023-03-05T05:22:54.847Z,1020.51
2023-03-05T05:23:25.760Z,1020.52
2023-03-05T05:23:56.697Z,1020.51
2023-03-05T05:24:27.623Z,1020.49
2023-03-05T05:25:29.461Z,1020.48
2023-03-05T05:26:00.403Z,1020.47
2023-03-05T05:26:31.337Z,1020.47
2023-03-05T05:27:02.283Z,1020.45
2023-03-05T05:27:33.207Z,1020.46
2023-03-05T05:28:04.101Z,1020.45
2023-03-05T05:28:35.015Z,1020.45
2023-03-05T05:29:05.920Z,1020.45
2023-03-05T05:29:36.852Z,1020.45
2023-03-05T05:30:07.766Z,1020.45
2023-03-05T05:30:38.684Z,1020.44
2023-03-05T05:31:09.650Z,1020.44
2023-03-05T05:31:40.626Z,1020.44
2023-03-05T05:32:11.609Z,1020.42
2023-03-05T05:32:42.669Z,1020.41
2023-03-05T05:33:13.150Z,1020.42
2023-03-05T05:33:44.086Z,1020.43
2023-03-05T05:34:14.983Z,1020.43
2023-03-05T05:34:45.873Z,1020.42
2023-03-05T05:35:16.753Z,1020.43
2023-03-05T05:35:47.667Z,1020.42
2023-03-05T05:36:18.559Z,1020.43
2023-03-05T05:36:49.487Z,1020.44
2023-03-05T05:37:20.436Z,1020.44
2023-03-05T05:37:51.345Z,1020.44
2023-03-05T05:38:22.215Z,1020.44
2023-03-05T05:38:53.103Z,1020.45
2023-03-05T05:39:23.956Z,1020.44
2023-03-05T05:39:54.842Z,1020.46
2023-03-05T05:40:25.776Z,1020.45
2023-03-05T05:40:56.674Z,1020.45
2023-03-05T05:41:27.578Z,1020.45
2023-03-05T05:41:58.465Z,1020.46
2023-03-05T05:42:29.308Z,1020.46
2023-03-05T05:43:00.193Z,1020.46
2023-03-05T05:43:31.035Z,1020.45
2023-03-05T05:44:01.924Z,1020.46
2023-03-05T05:44:32.855Z,1020.45
2023-03-05T05:45:03.702Z,1020.45
2023-03-05T05:45:34.968Z,1020.45
2023-03-05T05:46:05.608Z,1020.45
2023-03-05T05:46:36.063Z,1020.44
2023-03-05T05:47:06.932Z,1020.44
2023-03-05T05:47:37.807Z,1020.44
2023-03-05T05:48:08.676Z,1020.44
2023-03-05T05:48:39.589Z,1020.44
2023-03-05T05:49:10.482Z,1020.44
2023-03-05T05:49:41.359Z,1020.44
2023-03-05T05:50:12.224Z,1020.44
2023-03-05T05:50:43.081Z,1020.44
2023-03-05T05:51:13.932Z,1020.43
2023-03-05T05:51:44.893Z,1020.44
2023-03-05T05:52:15.729Z,1020.44
2023-03-05T05:52:46.625Z,1020.44
2023-03-05T05:53:17.467Z,1020.46
2023-03-05T05:53:48.308Z,1020.44
2023-03-05T05:54:19.160Z,1020.45
2023-03-05T05:54:50.057Z,1020.46
2023-03-05T05:55:20.916Z,1020.46
2023-03-05T05:55:51.784Z,1020.46
2023-03-05T05:56:22.650Z,1020.45
2023-03-05T05:56:53.512Z,1020.45
2023-03-05T05:57:24.394Z,1020.46
2023-03-05T05:57:55.242Z,1020.44
2023-03-05T05:58:26.115Z,1020.44
2023-03-05T05:58:56.944Z,1020.44
2023-03-05T05:59:27.806Z,1020.44
2023-03-05T05:59:58.676Z,1020.43
2023-03-05T06:00:29.552Z,1020.43
2023-03-05T06:01:00.426Z,1020.44
2023-03-05T06:01:31.286Z,1020.44
2023-03-05T06:02:02.211Z,1020.45
2023-03-05T06:02:33.092Z,1020.45
2023-03-05T06:03:04.099Z,1020.45
2023-03-05T06:03:35.059Z,1020.45
2023-03-05T06:04:05.447Z,1020.46
2023-03-05T06:04:36.317Z,1020.45
2023-03-05T06:05:07.191Z,1020.45
2023-03-05T06:05:38.040Z,1020.47
2023-03-05T06:06:08.920Z,1020.47
2023-03-05T06:06:39.752Z,1020.47
2023-03-05T06:07:10.648Z,1020.48
2023-03-05T06:07:41.532Z,1020.49
2023-03-05T06:08:12.405Z,1020.50
2023-03-05T06:08:43.242Z,1020.50
2023-03-05T06:09:14.107Z,1020.51
2023-03-05T06:09:44.966Z,1020.51
2023-03-05T06:10:15.847Z,1020.51
2023-03-05T06:10:46.712Z,1020.51
2023-03-05T06:11:19.351Z,1020.51
2023-03-05T06:11:48.409Z,1020.52
2023-03-05T06:12:19.255Z,1020.52
2023-03-05T06:12:50.112Z,1020.52
2023-03-05T06:13:20.973Z,1020.51
2023-03-05T06:13:51.862Z,1020.51
2023-03-05T06:14:22.747Z,1020.52
2023-03-05T06:14:53.619Z,1020.51
2023-03-05T06:15:24.490Z,1020.52
2023-03-05T06:15:55.337Z,1020.51
2023-03-05T06:16:26.208Z,1020.51
2023-03-05T06:16:57.150Z,1020.52
2023-03-05T06:17:58.892Z,1020.51
2023-03-05T06:18:29.762Z,1020.51
2023-03-05T06:19:01.985Z,1020.51
2023-03-05T06:19:31.200Z,1020.50
2023-03-05T06:20:02.117Z,1020.50
2023-03-05T06:20:32.947Z,1020.50